createdAt,value
2018-09-19T00:01:24.410Z,16.30
2018-09-19T00:03:52.880Z,16.10
2018-09-19T00:06:21.370Z,16.00
2018-09-19T00:09:01.839Z,15.80
2018-09-19T00:11:30.293Z,15.80
2018-09-19T00:13:58.731Z,15.80
2018-09-19T00:16:27.207Z,16.10
2018-09-19T00:18:55.686Z,16.30
2018-09-19T00:21:24.184Z,16.50
2018-09-19T00:23:52.725Z,16.50
2018-09-19T00:26:21.195Z,16.60
2018-09-19T00:28:49.710Z,16.60
2018-09-19T00:31:18.192Z,16.70
2018-09-19T00:33:46.648Z,16.70
2018-09-19T00:36:15.126Z,16.70
2018-09-19T00:38:43.629Z,16.80
2018-09-19T00:41:12.075Z,16.90
2018-09-19T00:43:40.530Z,16.90
2018-09-19T00:46:09.089Z,16.80
2018-09-19T00:48:37.550Z,16.80
2018-09-19T00:51:06.282Z,16.80
2018-09-19T00:53:34.780Z,16.60
2018-09-19T00:56:03.246Z,16.60
2018-09-19T00:58:31.809Z,16.50
2018-09-19T01:01:00.299Z,16.50
2018-09-19T01:03:28.779Z,16.30
2018-09-19T01:05:57.232Z,16.20
2018-09-19T01:08:25.758Z,16.10
2018-09-19T01:10:54.192Z,16.00
2018-09-19T01:13:22.687Z,15.90
2018-09-19T01:15:51.116Z,15.70
2018-09-19T01:18:19.639Z,15.60
2018-09-19T01:20:48.173Z,15.50
2018-09-19T01:23:16.627Z,15.60
2018-09-19T01:25:45.186Z,15.40
2018-09-19T01:28:13.680Z,15.40
2018-09-19T01:30:42.144Z,15.40
2018-09-19T01:33:10.587Z,15.40
2018-09-19T01:35:39.060Z,15.30
2018-09-19T01:38:07.531Z,15.30
2018-09-19T01:40:36.016Z,15.20
2018-09-19T01:43:04.483Z,15.20
2018-09-19T01:45:32.982Z,15.20
2018-09-19T01:48:01.408Z,15.30
2018-09-19T01:50:29.868Z,15.30
2018-09-19T01:52:58.360Z,15.20
2018-09-19T01:55:26.793Z,15.20
2018-09-19T01:57:55.253Z,15.30
2018-09-19T02:00:23.707Z,15.30
2018-09-19T02:02:52.204Z,15.40
2018-09-19T02:05:20.656Z,15.30
2018-09-19T02:07:49.118Z,15.30
2018-09-19T02:10:17.554Z,15.40
2018-09-19T02:12:46.036Z,15.50
2018-09-19T02:15:14.470Z,15.50
2018-09-19T02:17:42.935Z,15.60
2018-09-19T02:20:11.465Z,15.60
2018-09-19T02:22:39.906Z,15.70
2018-09-19T02:25:08.430Z,15.70
2018-09-19T02:27:36.888Z,15.70
2018-09-19T02:30:05.378Z,15.70
2018-09-19T02:32:33.842Z,15.70
2018-09-19T02:35:02.371Z,15.60
2018-09-19T02:37:30.853Z,15.60
2018-09-19T02:39:59.313Z,15.50
2018-09-19T02:42:27.771Z,15.50
2018-09-19T02:44:56.244Z,15.40
2018-09-19T02:47:24.682Z,15.30
2018-09-19T02:49:53.245Z,15.20
2018-09-19T02:52:21.783Z,15.20
2018-09-19T02:54:50.276Z,15.10
2018-09-19T02:57:18.779Z,15.00
2018-09-19T02:59:47.242Z,14.90
2018-09-19T03:02:15.723Z,14.90
2018-09-19T03:07:12.729Z,14.70
2018-09-19T03:09:41.230Z,14.70
2018-09-19T03:12:09.727Z,14.70
2018-09-19T03:14:38.169Z,14.70
2018-09-19T03:17:06.736Z,14.60
2018-09-19T03:19:35.218Z,14.60
2018-09-19T03:22:03.668Z,14.60
2018-09-19T03:24:32.167Z,14.70
2018-09-19T03:27:00.596Z,14.60
2018-09-19T03:29:29.091Z,14.60
2018-09-19T03:31:57.604Z,14.50
2018-09-19T03:34:26.097Z,14.50
2018-09-19T03:36:54.547Z,14.60
2018-09-19T03:39:23.027Z,14.60
2018-09-19T03:41:51.487Z,14.50
2018-09-19T03:44:19.908Z,14.60
2018-09-19T03:46:48.414Z,14.70
2018-09-19T03:49:16.885Z,14.70
2018-09-19T03:51:45.363Z,14.80
2018-09-19T03:54:13.807Z,14.70
2018-09-19T03:56:42.277Z,14.70
2018-09-19T03:59:10.698Z,14.70
2018-09-19T04:01:39.334Z,14.90
2018-09-19T04:04:07.810Z,15.00
2018-09-19T04:06:36.301Z,15.00
2018-09-19T04:09:07.956Z,15.00
2018-09-19T04:11:36.554Z,15.10
2018-09-19T04:14:05.023Z,15.30
2018-09-19T04:16:33.560Z,15.50
2018-09-19T04:19:02.003Z,15.60
2018-09-19T04:21:30.479Z,15.60
2018-09-19T04:23:58.959Z,15.70
2018-09-19T04:26:27.393Z,15.70
2018-09-19T04:28:55.863Z,15.80
2018-09-19T04:31:24.307Z,15.80
2018-09-19T04:33:52.799Z,15.70
2018-09-19T04:36:21.235Z,15.70
2018-09-19T04:38:49.790Z,15.50
2018-09-19T04:41:18.234Z,15.30
2018-09-19T04:43:46.743Z,15.10
2018-09-19T04:46:15.218Z,15.00
2018-09-19T04:48:43.699Z,14.90
2018-09-19T04:51:12.178Z,14.90
2018-09-19T04:53:40.623Z,14.70
2018-09-19T04:56:09.078Z,14.70
2018-09-19T04:58:37.527Z,14.50
2018-09-19T05:01:06.337Z,14.50
2018-09-19T05:03:34.853Z,14.40
2018-09-19T05:06:03.375Z,14.40
2018-09-19T05:08:31.947Z,14.20
2018-09-19T05:11:00.394Z,14.20
2018-09-19T05:13:28.889Z,14.20
2018-09-19T05:15:57.379Z,14.20
2018-09-19T05:18:25.830Z,14.20
2018-09-19T05:20:54.279Z,14.20
2018-09-19T05:23:22.791Z,14.10
2018-09-19T05:25:51.244Z,14.00
2018-09-19T05:28:19.697Z,14.20
2018-09-19T05:30:48.162Z,14.10
2018-09-19T05:33:16.609Z,14.10
2018-09-19T05:35:45.075Z,14.10
2018-09-19T05:38:13.511Z,14.50
2018-09-19T05:40:41.977Z,14.40
2018-09-19T05:43:10.433Z,14.30
2018-09-19T05:45:38.913Z,14.20
2018-09-19T05:48:07.361Z,14.20
2018-09-19T05:50:35.876Z,14.30
2018-09-19T05:53:04.326Z,14.40
2018-09-19T05:55:32.796Z,14.30
2018-09-19T05:58:01.238Z,14.30
2018-09-19T06:00:29.712Z,14.30
2018-09-19T06:02:58.195Z,14.30
2018-09-19T06:05:27.007Z,14.30
2018-09-19T06:07:55.591Z,14.40
2018-09-19T06:10:24.113Z,14.50
2018-09-19T06:12:52.647Z,14.60
2018-09-19T06:15:21.128Z,14.80
2018-09-19T06:17:49.611Z,15.00
2018-09-19T06:20:18.097Z,15.20
2018-09-19T06:22:46.553Z,15.40
2018-09-19T06:25:15.062Z,15.70
2018-09-19T06:27:44.221Z,15.90
2018-09-19T06:30:12.672Z,15.80
2018-09-19T06:32:41.204Z,15.80
2018-09-19T06:35:09.619Z,15.90
2018-09-19T06:37:38.078Z,16.10
2018-09-19T06:40:07.075Z,16.30
2018-09-19T06:42:35.518Z,16.70
2018-09-19T06:45:03.999Z,16.90
2018-09-19T06:47:32.457Z,17.20
2018-09-19T06:50:00.979Z,17.40
2018-09-19T06:52:29.511Z,17.70
2018-09-19T06:54:57.974Z,17.90
2018-09-19T06:57:26.486Z,18.00
2018-09-19T06:59:54.942Z,18.10
2018-09-19T07:02:23.411Z,18.40
2018-09-19T07:04:52.203Z,18.40
2018-09-19T07:07:20.766Z,18.50
2018-09-19T07:09:49.238Z,18.60
2018-09-19T07:12:17.677Z,18.80
2018-09-19T07:14:46.141Z,18.90
2018-09-19T07:17:14.586Z,19.10
2018-09-19T07:19:43.094Z,19.10
2018-09-19T07:22:11.564Z,19.40
2018-09-19T07:24:40.033Z,19.70
2018-09-19T07:27:08.486Z,19.70
2018-09-19T07:29:36.963Z,19.80
2018-09-19T07:32:05.478Z,20.00
2018-09-19T07:34:33.858Z,20.20
2018-09-19T07:37:02.330Z,20.00
2018-09-19T07:39:30.809Z,20.10
2018-09-19T07:41:59.270Z,20.30
2018-09-19T07:44:27.766Z,20.70
2018-09-19T07:46:56.214Z,20.70
2018-09-19T07:49:24.700Z,21.00
2018-09-19T07:51:53.149Z,21.10
2018-09-19T07:54:21.623Z,21.80
2018-09-19T07:56:50.093Z,21.90
2018-09-19T07:59:18.524Z,23.20
2018-09-19T08:01:47.032Z,25.40
2018-09-19T08:04:15.463Z,26.10
2018-09-19T08:06:43.963Z,28.30
2018-09-19T08:09:12.510Z,29.70
2018-09-19T08:11:40.957Z,29.90
2018-09-19T08:14:09.431Z,30.70
2018-09-19T08:16:37.949Z,32.40
2018-09-19T08:19:06.376Z,32.00
2018-09-19T08:21:34.864Z,31.80
2018-09-19T08:24:03.339Z,31.90
2018-09-19T08:26:31.837Z,32.20
2018-09-19T08:29:00.285Z,33.00
2018-09-19T08:31:28.764Z,33.60
2018-09-19T08:33:57.310Z,34.30
2018-09-19T08:36:25.786Z,33.60
2018-09-19T08:38:54.261Z,34.10
2018-09-19T08:41:22.742Z,34.10
2018-09-19T08:43:51.182Z,34.70
2018-09-19T08:46:19.700Z,34.00
2018-09-19T08:48:48.215Z,33.90
2018-09-19T08:51:16.714Z,35.00
2018-09-19T08:53:45.159Z,34.90
2018-09-19T08:56:13.646Z,35.50
2018-09-19T08:58:42.093Z,34.60
2018-09-19T09:01:10.567Z,34.40
2018-09-19T09:03:39.046Z,33.80
2018-09-19T09:06:07.508Z,33.50
2018-09-19T09:08:35.954Z,34.30
2018-09-19T09:11:04.435Z,35.10
2018-09-19T09:13:32.914Z,34.00
2018-09-19T09:16:01.387Z,35.20
2018-09-19T09:18:29.842Z,35.00
2018-09-19T09:20:58.349Z,35.30
2018-09-19T09:23:26.811Z,35.10
2018-09-19T09:25:55.307Z,34.80
2018-09-19T09:28:23.800Z,34.80
2018-09-19T09:30:52.496Z,35.40
2018-09-19T09:33:20.995Z,36.30
2018-09-19T09:35:49.495Z,34.60
2018-09-19T09:38:17.990Z,34.30
2018-09-19T09:40:46.482Z,34.50
2018-09-19T09:43:15.064Z,35.90
2018-09-19T09:45:43.506Z,36.60
2018-09-19T09:48:12.015Z,36.00
2018-09-19T09:50:40.495Z,35.30
2018-09-19T09:53:08.982Z,35.70
2018-09-19T09:55:37.416Z,35.20
2018-09-19T09:58:05.950Z,34.40
2018-09-19T10:00:40.775Z,35.00
2018-09-19T10:03:10.130Z,36.30
2018-09-19T10:05:38.771Z,35.20
2018-09-19T10:08:07.369Z,35.20
2018-09-19T10:10:36.390Z,36.60
2018-09-19T10:13:04.955Z,37.20
2018-09-19T10:15:33.766Z,37.60
2018-09-19T10:18:02.300Z,38.00
2018-09-19T10:20:30.870Z,37.30
2018-09-19T10:22:59.370Z,38.10
2018-09-19T10:25:27.875Z,38.30
2018-09-19T10:27:56.337Z,38.50
2018-09-19T10:30:24.791Z,38.90
2018-09-19T10:32:53.346Z,39.30
2018-09-19T10:35:21.989Z,37.80
2018-09-19T10:37:50.434Z,38.00
2018-09-19T10:40:18.921Z,38.50
2018-09-19T10:42:47.407Z,38.10
2018-09-19T10:45:15.857Z,36.90
2018-09-19T10:47:44.314Z,35.90
2018-09-19T10:50:12.748Z,35.10
2018-09-19T10:52:41.239Z,34.50
2018-09-19T10:55:09.762Z,33.20
2018-09-19T10:57:38.202Z,33.60
2018-09-19T11:00:07.842Z,33.70
2018-09-19T11:02:36.532Z,33.60
2018-09-19T11:05:04.995Z,34.60
2018-09-19T11:07:33.455Z,33.90
2018-09-19T11:10:01.974Z,32.90
2018-09-19T11:12:30.413Z,33.10
2018-09-19T11:14:59.096Z,32.90
2018-09-19T11:17:27.547Z,31.90
2018-09-19T11:19:56.045Z,31.20
2018-09-19T11:22:24.529Z,30.80
2018-09-19T11:24:53.111Z,30.50
2018-09-19T11:27:21.560Z,29.60
2018-09-19T11:29:50.031Z,29.90
2018-09-19T11:32:18.511Z,29.90
2018-09-19T11:34:46.970Z,30.20
2018-09-19T11:37:15.458Z,30.50
2018-09-19T11:39:43.913Z,30.70
2018-09-19T11:42:12.388Z,30.80
2018-09-19T11:44:40.840Z,30.90
2018-09-19T11:47:09.292Z,30.80
2018-09-19T11:49:37.746Z,30.60
2018-09-19T11:52:06.257Z,30.60
2018-09-19T11:54:34.812Z,30.80
2018-09-19T11:57:03.322Z,30.70
2018-09-19T11:59:31.775Z,30.60
2018-09-19T12:02:00.266Z,30.70
2018-09-19T12:04:28.693Z,30.80
2018-09-19T12:06:57.175Z,30.40
2018-09-19T12:09:25.661Z,30.10
2018-09-19T12:11:54.133Z,30.50
2018-09-19T12:14:22.621Z,30.70
2018-09-19T12:16:51.073Z,30.40
2018-09-19T12:19:19.626Z,29.90
2018-09-19T12:21:48.039Z,29.90
2018-09-19T12:24:16.576Z,29.60
2018-09-19T12:26:45.016Z,29.20
2018-09-19T12:29:13.476Z,29.80
2018-09-19T12:31:41.931Z,29.90
2018-09-19T12:34:10.379Z,30.30
2018-09-19T12:36:38.910Z,30.00
2018-09-19T12:39:09.514Z,29.80
2018-09-19T12:41:38.156Z,29.30
2018-09-19T12:44:06.665Z,29.40
2018-09-19T12:46:35.270Z,29.60
2018-09-19T12:49:03.804Z,29.60
2018-09-19T12:51:32.263Z,29.70
2018-09-19T12:54:00.734Z,29.70
2018-09-19T12:56:29.342Z,29.20
2018-09-19T12:58:57.847Z,29.40
2018-09-19T13:01:26.349Z,29.10
2018-09-19T13:03:54.793Z,28.90
2018-09-19T13:06:23.229Z,29.00
2018-09-19T13:08:51.772Z,29.10
2018-09-19T13:11:20.207Z,29.00
2018-09-19T13:13:48.689Z,29.50
2018-09-19T13:16:17.234Z,30.00
2018-09-19T13:18:45.849Z,30.00
2018-09-19T13:21:14.340Z,29.90
2018-09-19T13:23:42.828Z,29.80
2018-09-19T13:26:11.328Z,29.70
2018-09-19T13:28:39.761Z,29.60
2018-09-19T13:31:08.289Z,29.50
2018-09-19T13:33:36.766Z,29.90
2018-09-19T13:36:05.213Z,29.90
2018-09-19T13:38:33.667Z,29.70
2018-09-19T13:41:02.115Z,29.80
2018-09-19T13:43:30.616Z,29.90
2018-09-19T13:45:59.099Z,30.10
2018-09-19T13:48:27.875Z,30.30
2018-09-19T13:51:10.468Z,30.20
2018-09-19T13:53:38.982Z,30.10
2018-09-19T13:56:07.462Z,30.10
2018-09-19T13:58:35.966Z,30.10
2018-09-19T14:01:04.472Z,30.10
2018-09-19T14:03:32.910Z,30.30
2018-09-19T14:06:01.358Z,30.40
2018-09-19T14:08:29.878Z,30.30
2018-09-19T14:10:58.354Z,30.00
2018-09-19T14:13:27.668Z,29.50
2018-09-19T14:15:56.102Z,29.40
2018-09-19T14:18:24.561Z,29.60
2018-09-19T14:20:53.290Z,29.50
2018-09-19T14:23:22.003Z,29.70
2018-09-19T14:25:50.496Z,29.90
2018-09-19T14:28:19.025Z,29.70
2018-09-19T14:30:47.429Z,29.80
2018-09-19T14:33:15.935Z,29.40
2018-09-19T14:35:44.431Z,28.70
2018-09-19T14:38:13.459Z,29.10
2018-09-19T14:40:41.935Z,29.10
2018-09-19T14:43:10.408Z,29.10
2018-09-19T14:45:38.873Z,29.10
2018-09-19T14:48:07.348Z,29.10
2018-09-19T14:50:35.894Z,28.80
2018-09-19T14:53:04.345Z,28.70
2018-09-19T14:55:32.885Z,28.80
2018-09-19T14:58:01.347Z,29.00
2018-09-19T15:00:29.798Z,29.10
2018-09-19T15:02:58.311Z,29.20
2018-09-19T15:05:26.782Z,29.40
2018-09-19T15:07:55.288Z,29.10
2018-09-19T15:10:23.727Z,28.70
2018-09-19T15:12:52.197Z,28.60
2018-09-19T15:15:20.739Z,28.40
2018-09-19T15:17:49.182Z,28.10
2018-09-19T15:20:17.677Z,28.40
2018-09-19T15:22:46.107Z,28.10
2018-09-19T15:25:14.574Z,27.60
2018-09-19T15:27:43.049Z,27.60
2018-09-19T15:30:11.499Z,27.70
2018-09-19T15:32:39.948Z,27.80
2018-09-19T15:35:08.419Z,28.00
2018-09-19T15:37:36.962Z,28.10
2018-09-19T15:40:05.958Z,28.10
2018-09-19T15:42:34.525Z,28.10
2018-09-19T15:45:03.022Z,28.00
2018-09-19T15:47:31.545Z,27.90
2018-09-19T15:50:00.028Z,27.80
2018-09-19T15:52:28.598Z,27.70
2018-09-19T15:54:57.055Z,27.80
2018-09-19T15:57:25.553Z,27.70
2018-09-19T15:59:54.130Z,27.70
2018-09-19T16:02:22.597Z,27.60
2018-09-19T16:04:51.072Z,27.60
2018-09-19T16:07:19.581Z,27.50
2018-09-19T16:09:48.112Z,27.60
2018-09-19T16:12:16.559Z,27.50
2018-09-19T16:14:45.014Z,27.40
2018-09-19T16:17:14.201Z,27.40
2018-09-19T16:19:42.649Z,27.30
2018-09-19T16:22:11.196Z,27.10
2018-09-19T16:24:39.698Z,26.80
2018-09-19T16:27:08.333Z,26.70
2018-09-19T16:29:36.897Z,26.60
2018-09-19T16:32:05.411Z,26.60
2018-09-19T16:34:33.851Z,26.50
2018-09-19T16:37:02.309Z,26.30
2018-09-19T16:39:30.840Z,26.20
2018-09-19T16:41:59.321Z,26.20
2018-09-19T16:44:27.845Z,26.00
2018-09-19T16:46:56.361Z,25.90
2018-09-19T16:49:24.830Z,25.70
2018-09-19T16:51:53.390Z,25.60
2018-09-19T16:54:21.910Z,25.50
2018-09-19T16:56:50.364Z,25.40
2018-09-19T16:59:18.902Z,25.30
2018-09-19T17:01:47.347Z,25.20
2018-09-19T17:04:15.901Z,25.00
2018-09-19T17:06:44.345Z,24.90
2018-09-19T17:09:12.840Z,24.80
2018-09-19T17:11:41.303Z,24.70
2018-09-19T17:14:09.780Z,24.60
2018-09-19T17:16:38.219Z,24.40
2018-09-19T17:19:06.836Z,24.30
2018-09-19T17:21:35.275Z,24.20
2018-09-19T17:24:03.791Z,24.00
2018-09-19T17:26:32.251Z,23.90
2018-09-19T17:29:00.849Z,23.80
2018-09-19T17:31:29.556Z,23.80
2018-09-19T17:33:57.998Z,23.60
2018-09-19T17:36:26.455Z,23.50
2018-09-19T17:38:54.895Z,23.30
2018-09-19T17:41:23.410Z,23.30
2018-09-19T17:43:51.874Z,23.10
2018-09-19T17:46:20.374Z,23.00
2018-09-19T17:48:48.850Z,22.90
2018-09-19T17:51:17.379Z,22.80
2018-09-19T17:53:45.914Z,22.60
2018-09-19T17:56:14.426Z,22.50
2018-09-19T17:58:42.923Z,22.40
2018-09-19T18:01:11.484Z,22.30
2018-09-19T18:03:39.986Z,22.10
2018-09-19T18:06:09.302Z,22.00
2018-09-19T18:08:37.691Z,21.90
2018-09-19T18:11:06.314Z,21.80
2018-09-19T18:13:34.796Z,21.80
2018-09-19T18:16:03.277Z,21.70
2018-09-19T18:18:31.738Z,21.60
2018-09-19T18:21:00.215Z,21.50
2018-09-19T18:23:28.679Z,21.40
2018-09-19T18:25:57.135Z,21.40
2018-09-19T18:28:25.719Z,21.40
2018-09-19T18:30:54.231Z,21.30
2018-09-19T18:33:22.785Z,21.20
2018-09-19T18:35:51.326Z,21.10
2018-09-19T18:38:19.978Z,21.10
2018-09-19T18:40:48.476Z,21.00
2018-09-19T18:43:17.279Z,21.00
2018-09-19T18:45:45.775Z,21.00
2018-09-19T18:48:14.507Z,20.90
2018-09-19T18:50:43.058Z,20.80
2018-09-19T18:53:11.556Z,20.70
2018-09-19T18:55:40.805Z,20.60
2018-09-19T18:58:09.293Z,20.50
2018-09-19T19:00:37.771Z,20.50
2018-09-19T19:03:06.624Z,20.50
2018-09-19T19:05:35.196Z,20.40
2018-09-19T19:08:03.752Z,20.40
2018-09-19T19:10:32.223Z,20.40
2018-09-19T19:13:00.802Z,20.30
2018-09-19T19:15:29.338Z,20.20
2018-09-19T19:17:57.878Z,20.20
2018-09-19T19:20:26.417Z,20.10
2018-09-19T19:22:54.907Z,20.00
2018-09-19T19:25:23.390Z,19.90
2018-09-19T19:27:51.890Z,19.90
2018-09-19T19:30:20.460Z,19.80
2018-09-19T19:32:48.950Z,19.80
2018-09-19T19:35:18.343Z,19.70
2018-09-19T19:37:46.853Z,19.60
2018-09-19T19:40:15.351Z,19.60
2018-09-19T19:42:43.891Z,19.50
2018-09-19T19:45:12.423Z,19.40
2018-09-19T19:47:41.000Z,19.40
2018-09-19T19:50:09.525Z,19.40
2018-09-19T19:52:38.024Z,19.30
2018-09-19T19:55:06.583Z,19.20
2018-09-19T19:57:35.135Z,19.20
2018-09-19T20:00:03.653Z,19.10
2018-09-19T20:02:32.142Z,19.10
2018-09-19T20:05:00.628Z,19.00
2018-09-19T20:07:29.098Z,19.00
2018-09-19T20:09:57.567Z,19.00
2018-09-19T20:12:26.091Z,18.90
2018-09-19T20:14:54.518Z,18.90
2018-09-19T20:17:23.034Z,18.90
2018-09-19T20:19:51.503Z,18.80
2018-09-19T20:22:19.975Z,18.70
2018-09-19T20:24:48.443Z,18.70
2018-09-19T20:27:16.895Z,18.70
2018-09-19T20:29:45.365Z,18.60
2018-09-19T20:32:13.849Z,18.50
2018-09-19T20:34:42.363Z,18.40
2018-09-19T20:37:10.838Z,18.40
2018-09-19T20:39:39.269Z,18.30
2018-09-19T20:42:07.765Z,18.20
2018-09-19T20:44:36.266Z,18.20
2018-09-19T20:47:04.793Z,18.20
2018-09-19T20:49:33.293Z,18.10
2018-09-19T20:52:01.861Z,18.10
2018-09-19T20:54:30.322Z,18.10
2018-09-19T20:56:58.762Z,18.10
2018-09-19T20:59:27.286Z,18.00
2018-09-19T21:01:55.741Z,18.00
2018-09-19T21:04:24.246Z,17.90
2018-09-19T21:06:52.819Z,17.80
2018-09-19T21:09:21.279Z,17.80
2018-09-19T21:11:49.779Z,17.70
2018-09-19T21:14:18.238Z,17.70
2018-09-19T21:16:46.719Z,17.70
2018-09-19T21:19:15.249Z,17.70
2018-09-19T21:21:43.853Z,17.60
2018-09-19T21:24:12.491Z,17.70
2018-09-19T21:26:40.975Z,17.70
2018-09-19T21:29:09.477Z,17.70
2018-09-19T21:31:37.999Z,17.60
2018-09-19T21:34:06.543Z,17.60
2018-09-19T21:36:35.039Z,17.60
2018-09-19T21:39:04.201Z,17.50
2018-09-19T21:41:32.730Z,17.50
2018-09-19T21:44:01.233Z,17.40
2018-09-19T21:46:29.731Z,17.40
2018-09-19T21:48:58.307Z,17.30
2018-09-19T21:51:26.840Z,17.30
2018-09-19T21:53:55.331Z,17.30
2018-09-19T21:56:23.842Z,17.30
2018-09-19T21:58:52.323Z,17.30
2018-09-19T22:01:26.131Z,17.20
2018-09-19T22:03:54.643Z,17.10
2018-09-19T22:06:23.121Z,17.00
2018-09-19T22:08:51.586Z,17.00
2018-09-19T22:11:20.082Z,17.00
2018-09-19T22:13:48.611Z,17.00
2018-09-19T22:16:17.129Z,16.90
2018-09-19T22:18:45.621Z,16.90
2018-09-19T22:21:14.380Z,16.90
2018-09-19T22:23:42.869Z,16.80
2018-09-19T22:26:11.334Z,16.80
2018-09-19T22:28:39.863Z,16.80
2018-09-19T22:31:08.302Z,16.80
2018-09-19T22:33:36.824Z,16.70
2018-09-19T22:36:05.298Z,16.70
2018-09-19T22:38:33.815Z,16.70
2018-09-19T22:41:02.328Z,16.70
2018-09-19T22:43:30.861Z,16.70
2018-09-19T22:45:59.336Z,16.70
2018-09-19T22:48:27.830Z,16.70
2018-09-19T22:50:56.320Z,16.70
2018-09-19T22:53:24.861Z,16.60
2018-09-19T22:55:53.299Z,16.60
2018-09-19T22:58:21.810Z,16.60
2018-09-19T23:00:50.273Z,16.50
2018-09-19T23:03:18.751Z,16.60
2018-09-19T23:05:47.235Z,16.60
2018-09-19T23:08:15.756Z,16.60
2018-09-19T23:10:44.255Z,16.50
2018-09-19T23:13:12.735Z,16.50
2018-09-19T23:15:41.247Z,16.50
2018-09-19T23:18:09.765Z,16.50
2018-09-19T23:20:38.256Z,16.40
2018-09-19T23:23:06.775Z,16.40
2018-09-19T23:25:35.302Z,16.50
2018-09-19T23:28:03.749Z,16.40
2018-09-19T23:30:32.216Z,16.40
2018-09-19T23:33:00.670Z,16.40
2018-09-19T23:35:29.134Z,16.40
2018-09-19T23:37:57.611Z,16.40
2018-09-19T23:40:26.124Z,16.20
2018-09-19T23:42:54.654Z,16.20
2018-09-19T23:45:23.139Z,16.20
2018-09-19T23:47:51.623Z,16.20
2018-09-19T23:50:20.107Z,16.20
2018-09-19T23:52:48.599Z,16.20
2018-09-19T23:55:17.036Z,16.20
2018-09-19T23:57:45.511Z,16.20
